Time;durP1;ratioP1;P1;durP2;ratioP2;P2;SDS_P1;SDS_P2;PMS_P1;PMS_P2;Temp;Humidity;BMP_temperature;BMP_pressure;BME280_temperature;BME280_humidity;BME280_pressure;Samples;Min_cycle;Max_cycle;Signal;HPM_P1;HPM_P2
2022/04/26 03:37:45;;;;;;;5.33;4.30;;;;;;;22.53;34.46;94755.91;6160224;28;103821;-59
2022/04/26 03:40:47;;;;;;;4.10;3.70;;;;;;;22.51;34.05;94752.75;6135301;28;104941;-59
2022/04/26 03:43:49;;;;;;;9.47;4.40;;;;;;;22.44;34.24;94754.34;6152912;28;103736;-59
2022/04/26 03:46:50;;;;;;;6.80;3.67;;;;;;;22.26;33.89;94761.56;6168112;28;105020;-56
2022/04/26 03:49:52;;;;;;;4.00;3.60;;;;;;;22.31;34.16;94753.38;6122946;28;103899;-53
2022/04/26 03:52:54;;;;;;;5.50;2.60;;;;;;;22.23;33.77;94760.31;6159313;28;104871;-58
2022/04/26 03:55:55;;;;;;;5.27;2.50;;;;;;;22.15;33.74;94761.06;6149133;28;103479;-56
2022/04/26 03:58:57;;;;;;;4.83;2.60;;;;;;;22.26;34.10;94772.22;6146763;28;103747;-58
2022/04/26 04:01:59;;;;;;;7.20;2.60;;;;;;;22.32;34.07;94774.41;6138110;28;105402;-59
2022/04/26 04:05:01;;;;;;;7.70;2.77;;;;;;;22.46;34.40;94774.25;6145653;28;103849;-57
2022/04/26 04:08:03;;;;;;;5.40;2.30;;;;;;;22.66;34.30;94772.84;6141464;28;103882;-58
2022/04/26 04:11:05;;;;;;;6.23;3.30;;;;;;;22.56;35.92;94773.94;6140977;28;103796;-59
2022/04/26 04:14:06;;;;;;;7.20;3.10;;;;;;;22.52;36.87;94778.34;6133452;28;104835;-56
2022/04/26 04:17:08;;;;;;;7.60;2.90;;;;;;;22.68;35.83;94784.78;6140172;28;103956;-58
2022/04/26 04:20:11;;;;;;;5.40;2.90;;;;;;;22.76;35.42;94785.09;6144929;28;105256;-58
2022/04/26 04:23:13;;;;;;;7.77;4.30;;;;;;;22.67;36.09;94796.53;6143893;28;104319;-57
2022/04/26 04:26:15;;;;;;;6.23;4.07;;;;;;;22.66;36.35;94797.63;6131133;28;103857;-58
2022/04/26 04:29:16;;;;;;;9.57;3.57;;;;;;;22.72;36.17;94800.16;6141041;28;103910;-58
2022/04/26 04:32:18;;;;;;;5.77;3.40;;;;;;;22.75;35.63;94815.53;6140376;28;104885;-58
2022/04/26 04:35:20;;;;;;;7.00;3.47;;;;;;;22.76;35.90;94812.56;6135913;28;103856;-58
2022/04/26 04:38:21;;;;;;;7.30;3.57;;;;;;;22.76;35.98;94806.44;6134270;28;104603;-59
2022/04/26 04:41:24;;;;;;;6.10;3.60;;;;;;;22.78;35.81;94810.34;6137422;28;104824;-59
2022/04/26 04:44:26;;;;;;;5.60;3.37;;;;;;;22.77;35.94;94808.00;6138617;28;103797;-58
2022/04/26 04:47:27;;;;;;;5.63;3.20;;;;;;;22.76;36.16;94817.88;6129745;28;104541;-58
2022/04/26 04:50:29;;;;;;;4.90;3.20;;;;;;;22.78;35.86;94814.91;6140788;28;103834;-59
2022/04/26 04:53:31;;;;;;;8.50;3.43;;;;;;;22.77;36.23;94824.78;6137201;28;104738;-58
2022/04/26 04:56:33;;;;;;;4.53;3.43;;;;;;;22.77;36.14;94822.13;6136189;28;103651;-57
2022/04/26 04:59:35;;;;;;;3.70;2.90;;;;;;;22.76;35.97;94822.44;6127285;28;105013;-59
2022/04/26 05:02:37;;;;;;;4.80;2.93;;;;;;;22.76;36.08;94820.56;6134069;28;104634;-56
2022/04/26 05:05:39;;;;;;;5.43;3.27;;;;;;;22.74;36.07;94817.41;6138802;28;104944;-57
2022/04/26 05:08:41;;;;;;;5.37;2.70;;;;;;;22.78;35.92;94830.91;6138042;28;104879;-59
2022/04/26 05:11:43;;;;;;;5.13;2.70;;;;;;;22.77;36.14;94824.00;6122572;28;104391;-59
2022/04/26 05:14:45;;;;;;;4.23;3.83;;;;;;;22.78;36.58;94826.34;6136890;28;103794;-59
2022/04/26 05:17:46;;;;;;;4.83;2.70;;;;;;;22.79;36.13;94833.25;6137263;28;104584;-59
2022/04/26 05:20:48;;;;;;;4.80;2.97;;;;;;;22.80;36.27;94834.03;6130794;28;104870;-55
2022/04/26 05:27:10;;;;;;;5.13;2.67;;;;;;;22.82;36.34;94827.28;6137354;28;104892;-55
2022/04/26 05:30:12;;;;;;;3.27;2.77;;;;;;;22.82;36.13;94826.50;6136155;28;103919;-59
2022/04/26 05:33:14;;;;;;;2.70;2.37;;;;;;;22.84;36.41;94829.63;6123567;28;104829;-58
2022/04/26 05:36:15;;;;;;;6.03;2.63;;;;;;;22.85;35.94;94834.69;6136414;28;103859;-59
2022/04/26 05:39:17;;;;;;;3.30;3.00;;;;;;;22.91;35.85;94829.97;6137337;28;104377;-59
2022/04/26 05:42:19;;;;;;;4.63;2.83;;;;;;;22.99;35.71;94831.81;6133614;28;104193;-59
2022/04/26 05:45:21;;;;;;;4.77;3.80;;;;;;;23.04;35.89;94833.56;6126068;28;103198;-57
2022/04/26 05:48:23;;;;;;;4.87;3.03;;;;;;;23.13;35.67;94837.78;6136960;28;104229;-59
2022/04/26 05:51:25;;;;;;;4.63;2.90;;;;;;;23.19;35.77;94838.41;6133039;28;104155;-59
2022/04/26 05:54:26;;;;;;;3.37;3.07;;;;;;;23.24;35.83;94839.00;6136812;28;104966;-59
2022/04/26 05:57:28;;;;;;;3.63;2.87;;;;;;;23.26;35.32;94836.03;6126234;28;103588;-56
2022/04/26 06:00:31;;;;;;;4.90;3.13;;;;;;;23.28;35.36;94833.81;6118446;28;104869;-59
2022/04/26 06:03:33;;;;;;;6.27;3.60;;;;;;;23.33;35.28;94827.53;6132923;28;104506;-59
2022/04/26 06:06:36;;;;;;;3.70;2.83;;;;;;;23.40;35.29;94825.97;6130296;28;103696;-59
2022/04/26 06:09:38;;;;;;;4.20;2.83;;;;;;;23.44;35.21;94826.88;6131066;28;103752;-59
2022/04/26 06:12:42;;;;;;;5.50;3.37;;;;;;;23.54;35.07;94828.44;6132321;28;103829;-59
2022/04/26 06:15:43;;;;;;;4.17;3.13;;;;;;;23.65;35.20;94832.31;6135548;28;104861;-59
2022/04/26 06:18:45;;;;;;;4.67;3.00;;;;;;;23.70;35.19;94818.78;6124235;28;102910;-59
2022/04/26 06:21:47;;;;;;;4.33;2.63;;;;;;;23.75;35.40;94820.50;6132377;28;104913;-59
2022/04/26 06:24:50;;;;;;;2.80;2.50;;;;;;;23.80;35.44;94817.63;6135860;28;107545;-58
2022/04/26 06:27:52;;;;;;;5.97;3.20;;;;;;;23.84;35.33;94823.88;6118391;28;103747;-59
2022/04/26 06:30:58;;;;;;;5.07;2.70;;;;;;;23.90;35.29;94822.63;6121129;28;104701;-55
2022/04/26 06:33:59;;;;;;;3.00;2.70;;;;;;;23.90;35.03;94817.28;6135757;28;102999;-58
2022/04/26 06:37:01;;;;;;;5.97;3.20;;;;;;;23.86;34.94;94821.69;6135643;28;104680;-58
2022/04/26 06:40:05;;;;;;;3.63;2.90;;;;;;;23.81;34.81;94817.31;6135643;28;103708;-58
2022/04/26 06:43:06;;;;;;;5.97;2.83;;;;;;;23.87;35.10;94818.72;6121770;28;103759;-59
2022/04/26 06:46:08;;;;;;;5.37;2.90;;;;;;;23.93;34.56;94815.84;6135193;28;103855;-58
2022/04/26 06:49:10;;;;;;;5.00;2.90;;;;;;;23.96;34.99;94815.97;6136266;28;104475;-59
2022/04/26 06:52:12;;;;;;;3.90;3.00;;;;;;;24.00;35.00;94810.78;6125120;28;103472;-58
2022/04/26 06:55:14;;;;;;;6.10;3.10;;;;;;;24.02;34.88;94814.69;6131336;28;103928;-59
2022/04/26 06:58:15;;;;;;;4.73;4.20;;;;;;;24.05;34.97;94807.94;6135486;28;104113;-59
2022/04/26 07:01:17;;;;;;;5.27;4.20;;;;;;;24.08;34.75;94797.38;6130336;28;103671;-59
2022/04/26 07:04:39;;;;;;;4.83;4.33;;;;;;;24.12;35.15;94802.88;6124828;28;103728;-59
2022/04/26 07:07:42;;;;;;;7.87;3.90;;;;;;;24.15;34.94;94802.22;6135588;28;104749;-58
2022/04/26 07:10:44;;;;;;;4.10;3.53;;;;;;;24.17;34.69;94794.63;6134334;28;104971;-55
2022/04/26 07:13:46;;;;;;;3.83;3.30;;;;;;;24.20;34.62;94791.34;6131724;28;103673;-58
2022/04/26 07:16:49;;;;;;;3.90;3.37;;;;;;;24.21;34.59;94792.91;6123861;28;105053;-59
2022/04/26 07:19:52;;;;;;;4.00;3.50;;;;;;;24.19;34.60;94792.41;6135258;28;103595;-59
2022/04/26 07:23:02;;;;;;;3.83;3.47;;;;;;;24.19;34.21;94795.09;6130657;28;103806;-60
2022/04/26 07:26:04;;;;;;;6.40;3.73;;;;;;;24.28;34.39;94793.16;6129704;28;105037;-59
2022/04/26 07:29:05;;;;;;;4.17;3.63;;;;;;;24.35;34.55;94796.09;6130518;28;104949;-59
2022/04/26 07:32:08;;;;;;;4.67;3.60;;;;;;;24.37;34.16;94799.25;6129122;28;103673;-59
2022/04/26 07:35:11;;;;;;;6.57;4.57;;;;;;;24.38;34.39;94797.34;6134767;28;105150;-60
2022/04/26 07:38:13;;;;;;;5.93;5.43;;;;;;;24.39;34.49;94797.03;6123671;28;103918;-58
2022/04/26 07:41:15;;;;;;;8.13;7.30;;;;;;;24.40;34.70;94801.25;6130053;28;104929;-56
2022/04/26 07:44:17;;;;;;;12.00;9.70;;;;;;;24.42;34.29;94793.69;6134510;28;103777;-58
2022/04/26 07:47:22;;;;;;;9.97;8.47;;;;;;;24.42;34.57;94793.69;6134049;28;103723;-60
2022/04/26 07:50:23;;;;;;;8.10;7.40;;;;;;;24.46;34.44;94797.28;6124022;28;104001;-59
2022/04/26 07:53:26;;;;;;;7.63;6.67;;;;;;;24.48;34.60;94789.69;6129489;28;103904;-60
2022/04/26 07:56:28;;;;;;;9.90;6.73;;;;;;;24.46;34.66;94794.59;6133240;28;103699;-59
2022/04/26 07:59:30;;;;;;;7.40;6.37;;;;;;;24.48;35.00;94792.38;6135082;28;103832;-53
2022/04/26 08:02:33;;;;;;;7.20;6.57;;;;;;;24.50;34.71;94792.81;6118160;28;104554;-59
2022/04/26 08:05:35;;;;;;;7.40;6.70;;;;;;;24.50;34.99;94795.50;6134310;28;104703;-58
2022/04/26 08:08:36;;;;;;;7.23;6.20;;;;;;;24.49;34.96;94787.81;6134542;28;103621;-57
2022/04/26 08:11:38;;;;;;;9.40;5.93;;;;;;;24.49;35.15;94793.16;6123423;28;103896;-57
2022/04/26 08:14:40;;;;;;;7.00;6.27;;;;;;;24.52;34.83;94797.06;6130172;28;106547;-59
2022/04/26 08:17:42;;;;;;;7.77;6.17;;;;;;;24.52;34.84;94791.72;6133570;28;103795;-59
2022/04/26 08:20:47;;;;;;;6.47;5.87;;;;;;;24.52;34.60;94783.69;6132682;28;103884;-56
2022/04/26 08:27:23;;;;;;;8.20;7.40;;;;;;;24.54;34.62;94781.50;6123022;28;103631;-59
2022/04/26 08:30:25;;;;;;;8.07;7.27;;;;;;;24.53;34.95;94787.94;6136338;28;104923;-59
2022/04/26 08:33:28;;;;;;;8.20;7.40;;;;;;;24.52;34.72;94789.81;6132026;28;104205;-59
2022/04/26 08:36:31;;;;;;;7.00;6.40;;;;;;;24.52;34.81;94787.16;6127670;28;105033;-58
2022/04/26 08:39:34;;;;;;;7.17;6.47;;;;;;;24.53;35.03;94782.56;6138689;28;103461;-59
2022/04/26 08:42:38;;;;;;;7.37;6.50;;;;;;;24.55;34.92;94785.72;6132606;28;104734;-58
2022/04/26 08:45:46;;;;;;;11.60;9.80;;;;;;;24.54;34.57;94784.94;6132150;28;103853;-58
2022/04/26 08:52:09;;;;;;;11.30;10.20;;;;;;;24.54;34.99;94779.59;6132575;28;103834;-59
2022/04/26 08:55:11;;;;;;;9.70;8.90;;;;;;;24.54;35.01;94786.84;6137683;28;103418;-57
2022/04/26 08:58:14;;;;;;;9.67;8.87;;;;;;;24.54;34.96;94781.50;6127146;28;105168;-59
2022/04/26 09:01:18;;;;;;;8.77;7.87;;;;;;;24.52;35.06;94786.38;6132771;28;104696;-59
2022/04/26 09:04:21;;;;;;;8.63;7.63;;;;;;;24.51;35.18;94782.91;6136568;28;103742;-58
2022/04/26 09:07:31;;;;;;;8.60;7.80;;;;;;;24.52;34.98;94770.31;6137429;28;104774;-59
2022/04/26 09:10:33;;;;;;;9.13;8.30;;;;;;;24.53;34.97;94774.56;6127326;28;103392;-59
2022/04/26 09:13:40;;;;;;;11.50;10.40;;;;;;;24.52;35.28;94781.78;6132727;28;105085;-59
2022/04/26 09:16:41;;;;;;;10.03;9.13;;;;;;;24.50;35.25;94774.09;6136416;28;103439;-57
2022/04/26 09:19:55;;;;;;;10.27;9.37;;;;;;;24.52;34.92;94767.63;6132534;28;105231;-59
2022/04/26 09:22:59;;;;;;;8.53;7.83;;;;;;;24.49;35.24;94767.19;6130689;28;105250;-58
2022/04/26 09:26:11;;;;;;;8.80;8.00;;;;;;;24.47;35.38;94761.38;6137870;28;103874;-58
2022/04/26 09:29:19;;;;;;;8.63;7.93;;;;;;;24.49;34.84;94761.84;6137218;28;104015;-59
2022/04/26 09:32:23;;;;;;;9.10;8.20;;;;;;;24.48;35.10;94767.50;6121306;28;104117;-59
2022/04/26 09:35:31;;;;;;;7.37;6.70;;;;;;;24.48;35.13;94757.59;6136751;28;104765;-59
2022/04/26 09:38:33;;;;;;;9.10;8.30;;;;;;;24.47;35.38;94755.25;6112952;28;104962;-59
2022/04/26 09:41:37;;;;;;;9.40;8.50;;;;;;;24.46;35.08;94751.78;6114404;28;104065;-58
2022/04/26 09:44:40;;;;;;;8.13;7.43;;;;;;;24.47;35.52;94755.25;6125559;28;103674;-58
2022/04/26 09:47:43;;;;;;;9.30;8.30;;;;;;;24.45;35.26;94747.56;6136755;28;104190;-58
2022/04/26 09:50:45;;;;;;;9.63;8.73;;;;;;;24.46;35.51;94738.41;6135833;28;103717;-56
2022/04/26 09:53:47;;;;;;;8.70;8.00;;;;;;;24.43;35.33;94735.63;6127660;28;104362;-58
2022/04/26 09:56:49;;;;;;;9.50;7.37;;;;;;;24.43;35.22;94739.09;6131685;28;105398;-61
2022/04/26 09:59:52;;;;;;;7.97;7.13;;;;;;;24.46;35.35;94732.28;6135871;28;103483;-58
2022/04/26 10:02:57;;;;;;;7.13;6.53;;;;;;;24.46;35.22;94732.28;6130910;28;103880;-59
2022/04/26 10:06:02;;;;;;;7.93;7.13;;;;;;;24.44;35.37;94729.94;6125389;28;104708;-57
2022/04/26 10:09:06;;;;;;;7.30;6.60;;;;;;;24.42;35.04;94732.16;6136952;28;104342;-59
2022/04/26 10:12:08;;;;;;;9.90;9.00;;;;;;;24.41;35.26;94727.16;6131633;28;104892;-59
2022/04/26 10:15:10;;;;;;;14.57;13.37;;;;;;;24.42;35.28;94726.03;6136651;28;105152;-55
2022/04/26 10:18:25;;;;;;;20.13;18.43;;;;;;;24.39;35.41;94722.13;6125932;28;104974;-59
2022/04/26 10:21:27;;;;;;;23.20;21.20;;;;;;;24.39;35.13;94716.78;6130802;28;105270;-59
2022/04/26 10:24:30;;;;;;;29.33;26.90;;;;;;;24.38;35.13;94715.22;6136087;28;104003;-60
2022/04/26 10:27:31;;;;;;;32.70;29.90;;;;;;;24.38;35.36;94715.22;6131610;28;104772;-59
2022/04/26 10:30:48;;;;;;;32.77;30.07;;;;;;;24.36;35.35;94704.06;6130601;28;103807;-59
2022/04/26 10:33:50;;;;;;;31.00;28.40;;;;;;;24.35;35.29;94705.16;6132527;28;105169;-54
2022/04/26 10:36:54;;;;;;;31.53;28.90;;;;;;;24.34;35.37;94700.13;6134895;28;103883;-58
2022/04/26 10:40:01;;;;;;;31.90;29.10;;;;;;;24.33;35.61;94704.69;6124979;28;103680;-59
2022/04/26 10:43:06;;;;;;;29.73;27.30;;;;;;;24.30;35.24;94702.69;6130517;28;103706;-59
2022/04/26 10:46:08;;;;;;;28.97;26.37;;;;;;;24.30;35.30;94697.34;6117867;28;103689;-57
2022/04/26 10:49:25;;;;;;;24.33;22.37;;;;;;;24.26;35.32;94701.78;6136621;28;105391;-55
2022/04/26 10:52:35;;;;;;;22.27;20.27;;;;;;;24.23;35.32;94696.31;6107160;28;104734;-59
2022/04/26 10:55:37;;;;;;;22.23;20.33;;;;;;;24.22;35.61;94692.88;6135667;28;103452;-58
2022/04/26 10:58:51;;;;;;;25.10;23.00;;;;;;;24.22;35.71;94692.88;6135168;28;104419;-59
2022/04/26 11:01:55;;;;;;;30.80;28.10;;;;;;;24.22;35.68;94686.72;6124861;28;103976;-58
2022/04/26 11:05:05;;;;;;;30.60;27.90;;;;;;;24.19;35.69;94690.81;6130888;28;103871;-59
2022/04/26 11:08:07;;;;;;;32.63;29.73;;;;;;;24.17;35.40;94685.03;6134438;28;104605;-58
2022/04/26 11:11:11;;;;;;;34.70;31.77;;;;;;;24.15;35.46;94687.25;6130398;28;104718;-59
2022/04/26 11:14:12;;;;;;;34.07;31.07;;;;;;;24.15;35.61;94689.91;6123207;28;103736;-59
2022/04/26 11:17:16;;;;;;;32.67;29.97;;;;;;;24.15;35.56;94684.56;6134852;28;104768;-59
2022/04/26 11:20:20;;;;;;;35.30;32.33;;;;;;;24.14;35.66;94680.34;6134915;28;104927;-59
2022/04/26 11:30:29;;;;;;;34.53;31.63;;;;;;;24.08;35.70;94690.44;6135140;28;104123;-59
2022/04/26 11:33:32;;;;;;;32.93;30.07;;;;;;;24.06;35.66;94698.03;6129349;28;103703;-58
2022/04/26 11:36:37;;;;;;;31.77;29.17;;;;;;;24.06;35.52;94708.72;6124034;28;103703;-59
2022/04/26 11:39:40;;;;;;;32.90;30.20;;;;;;;24.05;35.70;94731.22;6134253;28;104236;-57
2022/04/26 11:42:42;;;;;;;33.83;31.03;;;;;;;24.03;36.00;94703.25;6128905;28;103792;-59
2022/04/26 11:45:47;;;;;;;36.70;33.80;;;;;;;24.02;35.41;94705.09;6134932;28;103874;-59
2022/04/26 11:48:49;;;;;;;35.10;32.10;;;;;;;24.00;35.56;94711.88;6124099;28;103899;-59
2022/04/26 11:52:00;;;;;;;33.57;30.67;;;;;;;23.99;35.68;94692.38;6128689;28;104033;-56
2022/04/26 11:55:02;;;;;;;37.90;34.80;;;;;;;23.98;35.16;94664.06;6134446;28;104898;-59
2022/04/26 11:58:22;;;;;;;40.37;37.20;;;;;;;23.96;35.06;94657.50;6133737;28;103881;-59
2022/04/26 12:01:25;;;;;;;47.00;43.03;;;;;;;23.95;35.27;94646.03;6122895;28;103669;-55
2022/04/26 12:04:27;;;;;;;44.77;40.87;;;;;;;23.94;35.06;94641.00;6136876;28;104747;-59
2022/04/26 12:07:31;;;;;;;41.30;37.70;;;;;;;23.93;34.98;94640.22;6138496;28;103644;-57
2022/04/26 12:10:33;;;;;;;41.50;38.00;;;;;;;23.92;35.02;94627.19;6127714;28;103657;-59
2022/04/26 12:13:35;;;;;;;39.37;36.27;;;;;;;23.93;34.77;94639.44;6132899;28;105145;-58
2022/04/26 12:16:49;;;;;;;37.77;34.57;;;;;;;23.95;35.32;94645.25;6137525;28;103820;-59
2022/04/26 12:19:51;;;;;;;37.37;34.37;;;;;;;23.97;35.24;94648.38;6138524;28;103847;-58
2022/04/26 12:22:53;;;;;;;37.43;34.33;;;;;;;23.95;35.02;94653.25;6121173;28;104328;-58
2022/04/26 12:26:02;;;;;;;36.83;33.93;;;;;;;23.92;34.85;94656.59;6138796;28;103689;-58
2022/04/26 12:29:11;;;;;;;35.90;32.90;;;;;;;23.93;34.84;94666.19;6138511;28;103928;-59
2022/04/26 12:32:16;;;;;;;34.23;31.30;;;;;;;23.91;35.01;94671.84;6132056;28;103880;-56
2022/04/26 12:35:20;;;;;;;33.03;30.33;;;;;;;23.89;34.92;94672.19;6129514;28;103844;-59
2022/04/26 12:38:21;;;;;;;30.50;28.10;;;;;;;23.90;34.95;94678.31;6137869;28;104424;-58
2022/04/26 12:41:24;;;;;;;30.57;28.10;;;;;;;23.89;35.00;94680.19;6130612;28;103688;-54
2022/04/26 12:44:26;;;;;;;31.07;28.60;;;;;;;23.92;34.61;94675.31;6128789;28;104391;-53
2022/04/26 12:50:52;;;;;;;26.87;24.77;;;;;;;23.91;34.76;94674.53;6136117;28;104733;-55
2022/04/26 12:54:15;;;;;;;27.77;25.57;;;;;;;23.88;34.89;94681.31;6135069;28;104972;-59
2022/04/26 12:57:17;;;;;;;25.87;23.70;;;;;;;23.89;34.38;94671.41;6126329;28;103607;-59
2022/04/26 13:00:21;;;;;;;24.27;22.37;;;;;;;23.88;34.56;94678.63;6137804;28;105111;-58
2022/04/26 13:03:22;;;;;;;24.20;22.30;;;;;;;23.87;34.63;94673.63;6132720;28;104939;-57
2022/04/26 13:06:25;;;;;;;23.13;21.23;;;;;;;23.88;34.66;94664.50;6134738;28;103805;-57
2022/04/26 13:09:47;;;;;;;22.30;20.60;;;;;;;23.89;34.46;94668.72;6132430;28;103382;-59
2022/04/26 13:12:49;;;;;;;22.90;20.80;;;;;;;23.86;34.85;94669.38;6130958;28;103784;-59
2022/04/26 13:15:50;;;;;;;23.27;21.27;;;;;;;23.84;34.87;94674.25;6136304;28;103947;-57
2022/04/26 13:18:52;;;;;;;21.63;19.83;;;;;;;23.86;34.38;94674.72;6127336;28;105001;-59
2022/04/26 13:21:54;;;;;;;20.90;19.03;;;;;;;23.88;34.54;94670.63;6132452;28;105078;-59
2022/04/26 13:25:32;;;;;;;19.60;17.90;;;;;;;23.90;35.00;94667.63;6138134;28;104494;-58
2022/04/26 13:28:34;;;;;;;17.33;15.93;;;;;;;23.88;35.31;94675.97;6137042;28;104985;-59
2022/04/26 13:31:36;;;;;;;17.97;16.67;;;;;;;23.86;35.02;94666.72;6120602;28;103728;-56
2022/04/26 13:34:46;;;;;;;18.07;16.57;;;;;;;23.86;34.98;94669.38;6136241;28;103695;-59
2022/04/26 13:37:50;;;;;;;16.83;15.23;;;;;;;23.92;35.88;94669.97;6136492;28;103694;-59
2022/04/26 13:40:55;;;;;;;16.47;15.10;;;;;;;23.99;35.65;94680.91;6129199;28;103747;-56
2022/04/26 13:43:57;;;;;;;17.13;15.63;;;;;;;24.01;36.14;94678.69;6128673;28;103678;-59
2022/04/26 13:47:02;;;;;;;16.23;14.83;;;;;;;23.92;36.10;94665.38;6137450;28;104637;-59
2022/04/26 13:50:06;;;;;;;15.47;14.27;;;;;;;23.89;36.18;94672.19;6136821;28;104727;-57
2022/04/26 13:53:08;;;;;;;14.73;13.43;;;;;;;23.84;35.92;94658.22;6120589;28;104650;-59
2022/04/26 13:56:10;;;;;;;13.93;12.83;;;;;;;23.82;35.78;94661.22;6118676;28;104778;-59
2022/04/26 13:59:11;;;;;;;14.60;13.30;;;;;;;23.79;35.85;94664.53;6136259;28;105025;-59
2022/04/26 14:02:13;;;;;;;12.97;11.87;;;;;;;23.79;35.59;94648.50;6130970;28;104289;-59
2022/04/26 14:05:16;;;;;;;12.80;11.70;;;;;;;23.78;35.46;94654.19;6126083;28;103982;-58
2022/04/26 14:08:18;;;;;;;12.43;11.37;;;;;;;23.77;35.63;94663.31;6136187;28;104975;-59
2022/04/26 14:11:21;;;;;;;12.07;11.00;;;;;;;23.76;35.72;94665.19;6132063;28;103915;-58
2022/04/26 14:24:25;;;;;;;10.83;9.90;;;;;;;23.79;35.55;94683.25;6135219;28;105064;-57
2022/04/26 14:27:27;;;;;;;11.73;10.53;;;;;;;23.80;35.36;94689.38;6124932;28;103913;-57
2022/04/26 14:30:29;;;;;;;10.07;9.20;;;;;;;23.78;35.84;94708.41;6135529;28;103794;-56
2022/04/26 14:33:46;;;;;;;10.40;9.60;;;;;;;23.77;35.69;94720.19;6130878;28;104087;-57
2022/04/26 14:36:48;;;;;;;10.17;9.37;;;;;;;23.79;35.85;94733.22;6135869;28;103909;-56
2022/04/26 14:39:57;;;;;;;10.60;9.70;;;;;;;23.77;35.76;94738.91;6125816;28;104645;-57
2022/04/26 14:42:59;;;;;;;10.20;9.27;;;;;;;23.77;35.79;94749.59;6129942;28;104706;-57
2022/04/26 14:46:00;;;;;;;10.17;9.27;;;;;;;23.78;35.58;94758.38;6134755;28;103441;-58
2022/04/26 14:49:06;;;;;;;10.67;9.77;;;;;;;23.77;35.33;94754.16;6128289;28;103625;-54
2022/04/26 14:52:08;;;;;;;9.60;8.80;;;;;;;23.74;35.63;94770.81;6120779;28;104935;-59
2022/04/26 14:55:29;;;;;;;7.37;5.53;;;;;;;23.68;36.21;94788.91;6135201;28;105718;-58
2022/04/26 14:58:33;;;;;;;5.97;3.83;;;;;;;23.57;36.56;94795.75;6134479;28;104241;-59
2022/04/26 15:01:35;;;;;;;4.60;3.47;;;;;;;23.45;36.52;94803.63;6120191;28;103659;-58
2022/04/26 15:04:38;;;;;;;3.53;3.23;;;;;;;23.47;35.86;94810.22;6134798;28;104954;-59
2022/04/26 15:11:00;;;;;;;7.03;3.50;;;;;;;23.53;36.53;94833.00;6131500;28;104132;-55
2022/04/26 15:17:23;;;;;;;8.30;4.37;;;;;;;23.57;36.73;94833.91;6134308;28;103574;-59
2022/04/26 15:20:25;;;;;;;7.23;3.70;;;;;;;23.61;36.67;94831.38;6135352;28;103832;-59
2022/04/26 15:23:27;;;;;;;7.53;3.73;;;;;;;23.67;37.28;94824.75;6118334;28;104227;-58
2022/04/26 15:26:29;;;;;;;5.60;3.60;;;;;;;23.67;37.64;94832.75;6108237;28;103850;-58
2022/04/26 15:29:31;;;;;;;7.90;4.00;;;;;;;23.69;38.14;94838.59;6148041;28;103889;-58
2022/04/26 15:32:35;;;;;;;9.23;4.17;;;;;;;23.68;38.45;94846.91;6155257;28;103760;-59
2022/04/26 15:35:38;;;;;;;6.20;3.20;;;;;;;23.68;39.01;94836.22;6104336;28;103594;-57
2022/04/26 15:38:40;;;;;;;11.50;3.40;;;;;;;23.71;39.67;94823.03;6130418;28;103637;-60
2022/04/26 15:41:42;;;;;;;7.93;3.90;;;;;;;23.76;39.98;94833.53;6134694;28;103644;-59
2022/04/26 15:44:46;;;;;;;5.53;3.73;;;;;;;23.75;40.47;94826.63;6137035;28;103860;-59
2022/04/26 15:47:48;;;;;;;4.87;3.80;;;;;;;23.77;40.80;94834.31;6119042;28;104093;-58
2022/04/26 15:50:51;;;;;;;5.20;3.00;;;;;;;23.78;40.49;94836.66;6130820;28;103664;-59
2022/04/26 15:53:53;;;;;;;4.60;2.93;;;;;;;23.77;40.41;94835.09;6121021;28;103866;-59
2022/04/26 15:56:55;;;;;;;10.93;2.90;;;;;;;23.70;40.16;94832.16;6131391;28;103804;-60
2022/04/26 15:59:56;;;;;;;6.33;3.00;;;;;;;23.70;40.22;94842.84;6124903;28;103756;-59
2022/04/26 16:02:58;;;;;;;4.93;2.70;;;;;;;23.69;39.57;94843.13;6131553;28;103882;-59
2022/04/26 16:06:00;;;;;;;3.50;2.60;;;;;;;23.68;39.42;94841.56;6136127;28;103766;-59
2022/04/26 16:22:24;;;;;;;6.63;3.30;;;;;;;23.43;40.30;94838.69;6126857;28;103821;-57
2022/04/26 16:25:26;;;;;;;6.60;3.47;;;;;;;23.40;40.54;94825.19;6133441;28;103937;-60
2022/04/26 16:28:31;;;;;;;5.13;3.43;;;;;;;23.40;40.30;94830.53;6135105;28;104718;-57
2022/04/26 16:31:33;;;;;;;5.87;4.20;;;;;;;23.38;40.78;94838.84;6121676;28;103678;-57
2022/04/26 16:34:36;;;;;;;7.33;4.67;;;;;;;23.30;40.78;94836.97;6132631;28;105364;-57
2022/04/26 16:37:40;;;;;;;5.10;4.10;;;;;;;23.34;40.37;94834.44;6135328;28;103765;-57
2022/04/26 16:40:41;;;;;;;4.40;3.50;;;;;;;23.36;40.18;94840.28;6134662;28;104809;-57
2022/04/26 16:43:43;;;;;;;7.23;5.57;;;;;;;23.23;40.73;94837.44;6148779;28;104071;-57
2022/04/26 16:46:45;;;;;;;6.63;4.90;;;;;;;23.20;41.37;94838.09;6159645;28;104026;-58
2022/04/26 16:49:47;;;;;;;8.67;4.53;;;;;;;23.26;41.47;94844.03;6136691;28;104812;-57
2022/04/26 16:52:49;;;;;;;5.67;4.37;;;;;;;23.23;41.74;94853.47;6135910;28;103933;-59
2022/04/26 16:55:51;;;;;;;8.60;3.93;;;;;;;23.39;40.37;94853.00;6121222;28;104651;-60
2022/04/26 16:58:53;;;;;;;7.77;4.43;;;;;;;23.44;40.54;94839.47;6131075;28;103579;-55
2022/04/26 17:01:56;;;;;;;6.87;4.00;;;;;;;23.47;41.33;94850.28;6137111;28;103884;-58
2022/04/26 17:04:58;;;;;;;5.33;4.33;;;;;;;23.49;40.94;94865.97;6133596;28;103709;-57
2022/04/26 17:07:59;;;;;;;5.70;3.90;;;;;;;23.37;41.51;94865.88;6131695;28;104274;-59
2022/04/26 17:14:22;;;;;;;7.23;3.70;;;;;;;23.61;41.64;94871.44;6146184;28;107965;-59
2022/04/26 17:17:25;;;;;;;6.70;4.37;;;;;;;23.65;41.80;94869.69;6109834;28;103716;-58
2022/04/26 17:20:27;;;;;;;4.70;4.00;;;;;;;23.64;41.25;94881.50;6133591;28;103695;-58
2022/04/26 17:23:29;;;;;;;4.70;4.13;;;;;;;23.60;41.03;94880.56;6138387;28;104213;-59
2022/04/26 17:26:31;;;;;;;4.90;3.60;;;;;;;23.60;41.47;94884.03;6119295;28;103900;-57
2022/04/26 17:29:33;;;;;;;6.20;3.70;;;;;;;23.60;41.49;94883.25;6122489;28;103764;-58
2022/04/26 17:32:35;;;;;;;5.50;3.90;;;;;;;23.56;41.11;94882.31;6136136;28;103417;-58
2022/04/26 17:35:36;;;;;;;4.17;3.70;;;;;;;23.49;41.27;94874.00;6122385;28;104786;-58
2022/04/26 17:38:38;;;;;;;4.60;3.73;;;;;;;23.49;41.20;94879.34;6141356;28;104991;-58
2022/04/26 17:41:40;;;;;;;5.43;4.27;;;;;;;23.47;41.00;94885.00;6113400;28;104541;-57
2022/04/26 17:44:43;;;;;;;4.30;3.90;;;;;;;23.28;41.72;94890.66;6139277;28;103747;-58
2022/04/26 17:47:45;;;;;;;7.40;4.47;;;;;;;23.36;40.96;94885.66;6150989;28;104729;-59
2022/04/26 17:50:46;;;;;;;9.63;4.83;;;;;;;23.40;41.54;94894.63;6135139;28;103743;-55
2022/04/26 17:57:09;;;;;;;6.40;3.30;;;;;;;23.44;40.74;94900.88;6151846;28;104732;-58
2022/04/26 18:00:12;;;;;;;4.30;3.90;;;;;;;23.43;40.66;94913.44;6140680;28;104572;-54
2022/04/26 18:03:14;;;;;;;4.73;3.40;;;;;;;23.43;40.87;94913.44;6112102;28;104887;-57
2022/04/26 18:06:17;;;;;;;3.33;3.00;;;;;;;23.42;40.82;94916.44;6143156;28;105199;-58
2022/04/26 18:09:20;;;;;;;11.33;3.40;;;;;;;23.46;40.58;94928.06;6152191;28;104431;-60
2022/04/26 18:12:23;;;;;;;4.87;3.13;;;;;;;23.60;40.74;94926.00;6158116;28;103548;-57
2022/04/26 18:15:27;;;;;;;7.70;3.13;;;;;;;23.67;41.44;94925.50;6135018;28;103447;-59
2022/04/26 18:18:31;;;;;;;10.33;3.30;;;;;;;23.64;40.73;94928.81;6164608;28;104835;-60
2022/04/26 18:21:34;;;;;;;8.80;3.20;;;;;;;23.66;40.71;94939.94;6138964;28;103615;-56
2022/04/26 18:24:35;;;;;;;7.63;3.67;;;;;;;23.69;40.76;94934.78;6141963;28;104142;-58
2022/04/26 18:27:39;;;;;;;5.80;3.60;;;;;;;23.65;41.00;94933.81;6142529;28;103857;-57
2022/04/26 18:30:41;;;;;;;4.30;2.90;;;;;;;23.60;40.60;94937.47;6137349;28;103829;-55
2022/04/26 18:33:44;;;;;;;5.63;2.90;;;;;;;23.60;40.68;94936.66;6131429;28;103576;-58
2022/04/26 18:36:52;;;;;;;5.63;3.50;;;;;;;23.59;40.47;94938.56;6127768;28;105069;-58
2022/04/26 18:39:54;;;;;;;5.53;3.13;;;;;;;23.58;40.06;94955.69;6138251;28;103668;-56